sensor_id;sensor_type;location;lat;lon;timestamp;P1;durP1;ratioP1;P2;durP2;ratioP2
79363;SDS011;68832;53.112;17.980;2023-11-19T00:04:53;22.40;;;13.10;;
79363;SDS011;68832;53.112;17.980;2023-11-19T00:07:20;16.60;;;9.20;;
79363;SDS011;68832;53.112;17.980;2023-11-19T00:09:47;16.80;;;8.70;;
79363;SDS011;68832;53.112;17.980;2023-11-19T00:12:13;28.80;;;13.80;;
79363;SDS011;68832;53.112;17.980;2023-11-19T00:14:40;36.90;;;20.40;;
79363;SDS011;68832;53.112;17.980;2023-11-19T00:17:07;34.20;;;17.70;;
79363;SDS011;68832;53.112;17.980;2023-11-19T00:19:34;24.80;;;14.30;;
79363;SDS011;68832;53.112;17.980;2023-11-19T00:22:00;30.30;;;14.60;;
79363;SDS011;68832;53.112;17.980;2023-11-19T00:24:29;28.80;;;14.40;;
79363;SDS011;68832;53.112;17.980;2023-11-19T00:26:56;30.30;;;15.90;;
79363;SDS011;68832;53.112;17.980;2023-11-19T00:29:23;32.20;;;16.30;;
79363;SDS011;68832;53.112;17.980;2023-11-19T00:31:51;38.60;;;19.50;;
79363;SDS011;68832;53.112;17.980;2023-11-19T00:34:19;43.50;;;21.80;;
79363;SDS011;68832;53.112;17.980;2023-11-19T00:36:48;34.30;;;18.10;;
79363;SDS011;68832;53.112;17.980;2023-11-19T00:39:15;31.80;;;17.60;;
79363;SDS011;68832;53.112;17.980;2023-11-19T00:41:42;26.30;;;14.10;;
79363;SDS011;68832;53.112;17.980;2023-11-19T00:44:08;33.20;;;18.20;;
79363;SDS011;68832;53.112;17.980;2023-11-19T00:46:35;28.80;;;15.70;;
79363;SDS011;68832;53.112;17.980;2023-11-19T00:49:03;39.10;;;20.40;;
79363;SDS011;68832;53.112;17.980;2023-11-19T00:51:30;36.20;;;19.90;;
79363;SDS011;68832;53.112;17.980;2023-11-19T00:53:58;36.60;;;21.60;;
79363;SDS011;68832;53.112;17.980;2023-11-19T00:56:25;42.00;;;23.90;;
79363;SDS011;68832;53.112;17.980;2023-11-19T00:58:52;28.70;;;18.40;;
79363;SDS011;68832;53.112;17.980;2023-11-19T01:01:18;45.70;;;26.70;;
79363;SDS011;68832;53.112;17.980;2023-11-19T01:03:45;32.50;;;17.50;;
79363;SDS011;68832;53.112;17.980;2023-11-19T01:06:12;41.20;;;23.30;;
79363;SDS011;68832;53.112;17.980;2023-11-19T01:08:42;46.60;;;24.10;;
79363;SDS011;68832;53.112;17.980;2023-11-19T01:11:19;35.90;;;22.00;;
79363;SDS011;68832;53.112;17.980;2023-11-19T01:13:47;35.10;;;18.40;;
79363;SDS011;68832;53.112;17.980;2023-11-19T01:16:14;34.30;;;18.50;;
79363;SDS011;68832;53.112;17.980;2023-11-19T01:18:41;31.90;;;19.80;;
79363;SDS011;68832;53.112;17.980;2023-11-19T01:21:07;33.30;;;17.90;;
79363;SDS011;68832;53.112;17.980;2023-11-19T01:23:35;33.20;;;20.30;;
79363;SDS011;68832;53.112;17.980;2023-11-19T01:26:01;49.20;;;25.80;;
79363;SDS011;68832;53.112;17.980;2023-11-19T01:28:29;40.20;;;19.80;;
79363;SDS011;68832;53.112;17.980;2023-11-19T01:30:57;43.50;;;22.20;;
79363;SDS011;68832;53.112;17.980;2023-11-19T01:33:24;32.20;;;16.80;;
79363;SDS011;68832;53.112;17.980;2023-11-19T01:35:51;33.90;;;20.70;;
79363;SDS011;68832;53.112;17.980;2023-11-19T01:38:18;39.70;;;20.60;;
79363;SDS011;68832;53.112;17.980;2023-11-19T01:40:44;46.00;;;23.70;;
79363;SDS011;68832;53.112;17.980;2023-11-19T01:43:11;39.00;;;22.10;;
79363;SDS011;68832;53.112;17.980;2023-11-19T01:45:38;45.50;;;21.70;;
79363;SDS011;68832;53.112;17.980;2023-11-19T01:48:05;33.80;;;17.70;;
79363;SDS011;68832;53.112;17.980;2023-11-19T01:50:31;23.30;;;13.10;;
79363;SDS011;68832;53.112;17.980;2023-11-19T01:52:59;35.40;;;18.90;;
79363;SDS011;68832;53.112;17.980;2023-11-19T01:55:26;34.70;;;18.50;;
79363;SDS011;68832;53.112;17.980;2023-11-19T01:57:55;30.50;;;18.60;;
79363;SDS011;68832;53.112;17.980;2023-11-19T02:00:25;35.50;;;18.10;;
79363;SDS011;68832;53.112;17.980;2023-11-19T02:02:52;41.90;;;21.70;;
79363;SDS011;68832;53.112;17.980;2023-11-19T02:05:19;39.40;;;20.60;;
79363;SDS011;68832;53.112;17.980;2023-11-19T02:07:46;37.30;;;19.80;;
79363;SDS011;68832;53.112;17.980;2023-11-19T02:10:13;30.50;;;17.90;;
79363;SDS011;68832;53.112;17.980;2023-11-19T02:12:41;40.50;;;20.60;;
79363;SDS011;68832;53.112;17.980;2023-11-19T02:15:11;38.70;;;21.60;;
79363;SDS011;68832;53.112;17.980;2023-11-19T02:17:37;29.50;;;16.20;;
79363;SDS011;68832;53.112;17.980;2023-11-19T02:20:04;48.90;;;23.00;;
79363;SDS011;68832;53.112;17.980;2023-11-19T02:22:41;52.60;;;24.50;;
79363;SDS011;68832;53.112;17.980;2023-11-19T02:25:08;39.40;;;20.80;;
79363;SDS011;68832;53.112;17.980;2023-11-19T02:30:22;38.50;;;21.80;;
79363;SDS011;68832;53.112;17.980;2023-11-19T02:32:55;39.70;;;22.90;;
79363;SDS011;68832;53.112;17.980;2023-11-19T02:35:27;24.50;;;15.20;;
79363;SDS011;68832;53.112;17.980;2023-11-19T02:37:54;44.00;;;22.60;;
79363;SDS011;68832;53.112;17.980;2023-11-19T02:40:24;38.50;;;19.10;;
79363;SDS011;68832;53.112;17.980;2023-11-19T02:42:53;35.90;;;19.80;;
79363;SDS011;68832;53.112;17.980;2023-11-19T02:45:22;37.60;;;19.00;;
79363;SDS011;68832;53.112;17.980;2023-11-19T02:47:49;42.10;;;21.90;;
79363;SDS011;68832;53.112;17.980;2023-11-19T02:50:17;39.60;;;22.70;;
79363;SDS011;68832;53.112;17.980;2023-11-19T02:52:48;35.80;;;20.00;;
79363;SDS011;68832;53.112;17.980;2023-11-19T02:55:14;48.50;;;21.80;;
79363;SDS011;68832;53.112;17.980;2023-11-19T02:57:41;45.30;;;22.60;;
79363;SDS011;68832;53.112;17.980;2023-11-19T03:00:21;39.20;;;18.70;;
79363;SDS011;68832;53.112;17.980;2023-11-19T03:03:02;40.80;;;20.90;;
79363;SDS011;68832;53.112;17.980;2023-11-19T03:05:46;34.90;;;18.50;;
79363;SDS011;68832;53.112;17.980;2023-11-19T03:08:14;28.30;;;15.40;;
79363;SDS011;68832;53.112;17.980;2023-11-19T03:10:41;41.60;;;20.50;;
79363;SDS011;68832;53.112;17.980;2023-11-19T03:13:12;48.90;;;24.00;;
79363;SDS011;68832;53.112;17.980;2023-11-19T03:15:40;35.50;;;20.20;;
79363;SDS011;68832;53.112;17.980;2023-11-19T03:18:07;40.90;;;20.10;;
79363;SDS011;68832;53.112;17.980;2023-11-19T03:20:35;30.50;;;15.30;;
79363;SDS011;68832;53.112;17.980;2023-11-19T03:23:02;38.70;;;20.00;;
79363;SDS011;68832;53.112;17.980;2023-11-19T03:25:28;35.00;;;17.60;;
79363;SDS011;68832;53.112;17.980;2023-11-19T03:28:01;38.10;;;19.50;;
79363;SDS011;68832;53.112;17.980;2023-11-19T03:30:28;39.90;;;20.50;;
79363;SDS011;68832;53.112;17.980;2023-11-19T03:32:56;30.20;;;15.40;;
79363;SDS011;68832;53.112;17.980;2023-11-19T03:35:23;30.30;;;17.10;;
79363;SDS011;68832;53.112;17.980;2023-11-19T03:37:50;31.60;;;17.10;;
79363;SDS011;68832;53.112;17.980;2023-11-19T03:40:17;34.00;;;19.10;;
79363;SDS011;68832;53.112;17.980;2023-11-19T03:42:45;41.70;;;21.40;;
79363;SDS011;68832;53.112;17.980;2023-11-19T03:45:12;30.70;;;15.30;;
79363;SDS011;68832;53.112;17.980;2023-11-19T03:47:39;30.50;;;16.00;;
79363;SDS011;68832;53.112;17.980;2023-11-19T03:50:06;31.60;;;16.30;;
79363;SDS011;68832;53.112;17.980;2023-11-19T03:52:34;31.90;;;17.20;;
79363;SDS011;68832;53.112;17.980;2023-11-19T03:55:01;33.30;;;14.80;;
79363;SDS011;68832;53.112;17.980;2023-11-19T03:57:31;33.60;;;16.70;;
79363;SDS011;68832;53.112;17.980;2023-11-19T03:59:57;34.80;;;18.50;;
79363;SDS011;68832;53.112;17.980;2023-11-19T04:02:25;27.50;;;13.10;;
79363;SDS011;68832;53.112;17.980;2023-11-19T04:07:21;35.50;;;18.80;;
79363;SDS011;68832;53.112;17.980;2023-11-19T04:09:48;33.20;;;16.30;;
79363;SDS011;68832;53.112;17.980;2023-11-19T04:12:14;33.30;;;16.20;;
79363;SDS011;68832;53.112;17.980;2023-11-19T04:14:41;22.20;;;10.20;;
79363;SDS011;68832;53.112;17.980;2023-11-19T04:17:08;32.10;;;17.10;;
79363;SDS011;68832;53.112;17.980;2023-11-19T04:19:34;38.90;;;18.00;;
79363;SDS011;68832;53.112;17.980;2023-11-19T04:22:01;30.00;;;16.20;;
79363;SDS011;68832;53.112;17.980;2023-11-19T04:24:28;30.70;;;19.50;;
79363;SDS011;68832;53.112;17.980;2023-11-19T04:26:55;19.20;;;11.60;;
79363;SDS011;68832;53.112;17.980;2023-11-19T04:29:21;24.30;;;13.50;;
79363;SDS011;68832;53.112;17.980;2023-11-19T04:31:48;34.90;;;18.10;;
79363;SDS011;68832;53.112;17.980;2023-11-19T04:34:15;33.90;;;17.90;;
79363;SDS011;68832;53.112;17.980;2023-11-19T04:36:42;28.50;;;18.30;;
79363;SDS011;68832;53.112;17.980;2023-11-19T04:39:10;31.60;;;17.60;;
79363;SDS011;68832;53.112;17.980;2023-11-19T04:41:51;29.80;;;15.20;;
79363;SDS011;68832;53.112;17.980;2023-11-19T04:44:20;30.10;;;16.90;;
79363;SDS011;68832;53.112;17.980;2023-11-19T04:46:47;23.60;;;12.40;;
79363;SDS011;68832;53.112;17.980;2023-11-19T04:49:13;30.60;;;16.60;;
79363;SDS011;68832;53.112;17.980;2023-11-19T04:51:41;29.90;;;16.40;;
79363;SDS011;68832;53.112;17.980;2023-11-19T04:54:08;25.90;;;15.50;;
79363;SDS011;68832;53.112;17.980;2023-11-19T04:56:36;26.50;;;14.90;;
79363;SDS011;68832;53.112;17.980;2023-11-19T04:59:06;28.10;;;13.70;;
79363;SDS011;68832;53.112;17.980;2023-11-19T05:01:33;18.10;;;10.40;;
79363;SDS011;68832;53.112;17.980;2023-11-19T05:03:59;30.60;;;15.90;;
79363;SDS011;68832;53.112;17.980;2023-11-19T05:06:30;30.10;;;16.00;;
79363;SDS011;68832;53.112;17.980;2023-11-19T05:08:58;28.40;;;14.70;;
79363;SDS011;68832;53.112;17.980;2023-11-19T05:11:27;20.50;;;11.20;;
79363;SDS011;68832;53.112;17.980;2023-11-19T05:13:54;35.20;;;17.60;;
79363;SDS011;68832;53.112;17.980;2023-11-19T05:16:21;30.80;;;15.50;;
79363;SDS011;68832;53.112;17.980;2023-11-19T05:18:48;30.20;;;15.40;;
79363;SDS011;68832;53.112;17.980;2023-11-19T05:21:14;26.80;;;14.50;;
79363;SDS011;68832;53.112;17.980;2023-11-19T05:23:41;27.50;;;14.10;;
79363;SDS011;68832;53.112;17.980;2023-11-19T05:26:08;27.30;;;15.00;;
79363;SDS011;68832;53.112;17.980;2023-11-19T05:28:39;18.80;;;11.50;;
79363;SDS011;68832;53.112;17.980;2023-11-19T05:31:07;30.10;;;16.30;;
79363;SDS011;68832;53.112;17.980;2023-11-19T05:33:33;29.50;;;16.00;;
79363;SDS011;68832;53.112;17.980;2023-11-19T05:36:00;25.30;;;14.10;;
79363;SDS011;68832;53.112;17.980;2023-11-19T05:38:29;13.30;;;6.20;;
79363;SDS011;68832;53.112;17.980;2023-11-19T05:40:56;20.50;;;11.80;;
79363;SDS011;68832;53.112;17.980;2023-11-19T05:43:23;14.40;;;8.60;;
79363;SDS011;68832;53.112;17.980;2023-11-19T05:45:50;15.40;;;9.00;;
79363;SDS011;68832;53.112;17.980;2023-11-19T05:48:17;26.30;;;13.30;;
79363;SDS011;68832;53.112;17.980;2023-11-19T05:50:44;23.80;;;14.50;;
79363;SDS011;68832;53.112;17.980;2023-11-19T05:53:11;24.20;;;12.40;;
79363;SDS011;68832;53.112;17.980;2023-11-19T05:55:39;12.40;;;7.10;;
79363;SDS011;68832;53.112;17.980;2023-11-19T05:58:27;20.40;;;10.40;;
79363;SDS011;68832;53.112;17.980;2023-11-19T06:00:55;18.70;;;10.80;;
79363;SDS011;68832;53.112;17.980;2023-11-19T06:03:23;26.80;;;13.50;;
79363;SDS011;68832;53.112;17.980;2023-11-19T06:05:49;28.20;;;13.40;;
79363;SDS011;68832;53.112;17.980;2023-11-19T06:08:16;17.70;;;8.70;;
79363;SDS011;68832;53.112;17.980;2023-11-19T06:10:43;24.30;;;12.70;;
79363;SDS011;68832;53.112;17.980;2023-11-19T06:13:13;10.40;;;6.40;;
79363;SDS011;68832;53.112;17.980;2023-11-19T06:15:44;23.40;;;11.70;;
79363;SDS011;68832;53.112;17.980;2023-11-19T06:18:10;22.20;;;12.30;;
79363;SDS011;68832;53.112;17.980;2023-11-19T06:20:41;19.90;;;11.20;;
79363;SDS011;68832;53.112;17.980;2023-11-19T06:23:07;17.50;;;10.50;;
79363;SDS011;68832;53.112;17.980;2023-11-19T06:25:34;14.70;;;8.50;;
79363;SDS011;68832;53.112;17.980;2023-11-19T06:28:01;17.10;;;12.00;;
79363;SDS011;68832;53.112;17.980;2023-11-19T06:30:29;21.80;;;10.60;;
79363;SDS011;68832;53.112;17.980;2023-11-19T06:32:57;24.80;;;12.60;;
79363;SDS011;68832;53.112;17.980;2023-11-19T06:35:24;19.10;;;11.20;;
79363;SDS011;68832;53.112;17.980;2023-11-19T06:37:53;15.20;;;7.90;;
79363;SDS011;68832;53.112;17.980;2023-11-19T06:40:19;18.50;;;11.30;;
79363;SDS011;68832;53.112;17.980;2023-11-19T06:42:46;22.20;;;11.30;;
79363;SDS011;68832;53.112;17.980;2023-11-19T06:45:13;13.00;;;5.70;;
79363;SDS011;68832;53.112;17.980;2023-11-19T06:47:40;18.80;;;9.60;;
79363;SDS011;68832;53.112;17.980;2023-11-19T06:50:07;17.70;;;10.10;;
79363;SDS011;68832;53.112;17.980;2023-11-19T06:52:34;11.70;;;5.90;;
79363;SDS011;68832;53.112;17.980;2023-11-19T06:55:00;11.20;;;6.30;;
79363;SDS011;68832;53.112;17.980;2023-11-19T06:57:27;15.80;;;9.70;;
79363;SDS011;68832;53.112;17.980;2023-11-19T06:59:55;14.10;;;8.90;;
79363;SDS011;68832;53.112;17.980;2023-11-19T07:02:22;17.20;;;9.10;;
79363;SDS011;68832;53.112;17.980;2023-11-19T07:04:48;17.50;;;8.20;;
79363;SDS011;68832;53.112;17.980;2023-11-19T07:07:15;9.50;;;4.60;;
79363;SDS011;68832;53.112;17.980;2023-11-19T07:09:41;17.30;;;10.00;;
79363;SDS011;68832;53.112;17.980;2023-11-19T07:12:09;8.00;;;4.80;;
79363;SDS011;68832;53.112;17.980;2023-11-19T07:14:35;16.70;;;9.40;;
79363;SDS011;68832;53.112;17.980;2023-11-19T07:17:02;20.70;;;11.50;;
79363;SDS011;68832;53.112;17.980;2023-11-19T07:19:29;12.50;;;8.40;;
79363;SDS011;68832;53.112;17.980;2023-11-19T07:21:55;16.20;;;9.70;;
79363;SDS011;68832;53.112;17.980;2023-11-19T07:24:22;12.20;;;7.70;;
79363;SDS011;68832;53.112;17.980;2023-11-19T07:26:49;14.20;;;7.60;;
79363;SDS011;68832;53.112;17.980;2023-11-19T07:29:16;15.90;;;8.50;;
79363;SDS011;68832;53.112;17.980;2023-11-19T07:31:45;21.10;;;10.90;;
79363;SDS011;68832;53.112;17.980;2023-11-19T07:34:12;20.80;;;12.80;;
79363;SDS011;68832;53.112;17.980;2023-11-19T07:36:40;11.00;;;5.20;;
79363;SDS011;68832;53.112;17.980;2023-11-19T07:39:07;10.70;;;6.20;;
79363;SDS011;68832;53.112;17.980;2023-11-19T07:41:34;21.00;;;12.60;;
79363;SDS011;68832;53.112;17.980;2023-11-19T07:44:03;22.50;;;11.90;;
79363;SDS011;68832;53.112;17.980;2023-11-19T07:46:30;12.40;;;7.10;;
79363;SDS011;68832;53.112;17.980;2023-11-19T07:48:58;16.40;;;9.10;;
79363;SDS011;68832;53.112;17.980;2023-11-19T07:51:24;17.10;;;10.60;;
79363;SDS011;68832;53.112;17.980;2023-11-19T07:53:51;11.60;;;5.90;;
79363;SDS011;68832;53.112;17.980;2023-11-19T07:56:18;16.80;;;9.40;;
79363;SDS011;68832;53.112;17.980;2023-11-19T07:58:44;18.30;;;10.20;;
79363;SDS011;68832;53.112;17.980;2023-11-19T08:01:11;12.00;;;7.60;;
79363;SDS011;68832;53.112;17.980;2023-11-19T08:03:37;15.80;;;9.00;;
79363;SDS011;68832;53.112;17.980;2023-11-19T08:06:04;13.70;;;7.20;;
79363;SDS011;68832;53.112;17.980;2023-11-19T08:08:31;22.80;;;11.40;;
79363;SDS011;68832;53.112;17.980;2023-11-19T08:10:59;17.30;;;10.50;;
79363;SDS011;68832;53.112;17.980;2023-11-19T08:13:26;13.30;;;7.90;;
79363;SDS011;68832;53.112;17.980;2023-11-19T08:15:53;16.90;;;9.80;;
79363;SDS011;68832;53.112;17.980;2023-11-19T08:18:20;11.90;;;5.20;;
79363;SDS011;68832;53.112;17.980;2023-11-19T08:20:46;18.50;;;9.70;;
79363;SDS011;68832;53.112;17.980;2023-11-19T08:23:19;19.40;;;12.90;;
79363;SDS011;68832;53.112;17.980;2023-11-19T08:25:48;20.20;;;11.90;;
79363;SDS011;68832;53.112;17.980;2023-11-19T08:28:15;19.70;;;10.00;;
79363;SDS011;68832;53.112;17.980;2023-11-19T08:30:41;12.90;;;6.20;;
79363;SDS011;68832;53.112;17.980;2023-11-19T08:33:10;23.30;;;11.40;;
79363;SDS011;68832;53.112;17.980;2023-11-19T08:35:36;16.50;;;7.50;;
79363;SDS011;68832;53.112;17.980;2023-11-19T08:38:03;19.10;;;10.90;;
79363;SDS011;68832;53.112;17.980;2023-11-19T08:40:30;14.00;;;8.10;;
79363;SDS011;68832;53.112;17.980;2023-11-19T08:42:56;22.10;;;14.10;;
79363;SDS011;68832;53.112;17.980;2023-11-19T08:45:23;19.00;;;11.70;;
79363;SDS011;68832;53.112;17.980;2023-11-19T08:47:50;24.00;;;13.20;;
79363;SDS011;68832;53.112;17.980;2023-11-19T08:50:16;19.10;;;12.10;;
79363;SDS011;68832;53.112;17.980;2023-11-19T08:52:43;19.40;;;11.90;;
79363;SDS011;68832;53.112;17.980;2023-11-19T08:55:10;20.20;;;11.30;;
79363;SDS011;68832;53.112;17.980;2023-11-19T08:57:38;13.00;;;7.10;;
79363;SDS011;68832;53.112;17.980;2023-11-19T09:00:04;14.70;;;7.90;;
79363;SDS011;68832;53.112;17.980;2023-11-19T09:02:35;12.40;;;7.60;;
79363;SDS011;68832;53.112;17.980;2023-11-19T09:05:04;20.70;;;11.20;;
79363;SDS011;68832;53.112;17.980;2023-11-19T09:07:31;19.20;;;12.40;;
79363;SDS011;68832;53.112;17.980;2023-11-19T09:09:58;19.10;;;10.30;;
79363;SDS011;68832;53.112;17.980;2023-11-19T09:12:25;23.60;;;12.10;;
79363;SDS011;68832;53.112;17.980;2023-11-19T09:14:51;23.00;;;13.00;;
79363;SDS011;68832;53.112;17.980;2023-11-19T09:17:18;22.10;;;13.00;;
79363;SDS011;68832;53.112;17.980;2023-11-19T09:19:44;25.40;;;13.60;;
79363;SDS011;68832;53.112;17.980;2023-11-19T09:22:12;16.40;;;7.90;;
79363;SDS011;68832;53.112;17.980;2023-11-19T09:24:38;17.70;;;11.10;;
79363;SDS011;68832;53.112;17.980;2023-11-19T09:27:05;22.40;;;11.40;;
79363;SDS011;68832;53.112;17.980;2023-11-19T09:29:32;12.20;;;8.10;;
79363;SDS011;68832;53.112;17.980;2023-11-19T09:31:59;16.30;;;9.20;;
79363;SDS011;68832;53.112;17.980;2023-11-19T09:34:26;21.60;;;11.40;;
79363;SDS011;68832;53.112;17.980;2023-11-19T09:36:52;14.10;;;7.20;;
79363;SDS011;68832;53.112;17.980;2023-11-19T09:39:19;15.90;;;11.60;;
79363;SDS011;68832;53.112;17.980;2023-11-19T09:41:47;15.40;;;7.80;;
79363;SDS011;68832;53.112;17.980;2023-11-19T09:44:14;23.60;;;13.60;;
79363;SDS011;68832;53.112;17.980;2023-11-19T09:46:44;24.00;;;13.80;;
79363;SDS011;68832;53.112;17.980;2023-11-19T09:49:11;28.90;;;16.00;;
79363;SDS011;68832;53.112;17.980;2023-11-19T09:51:39;17.90;;;8.60;;
79363;SDS011;68832;53.112;17.980;2023-11-19T09:54:05;14.70;;;7.20;;
79363;SDS011;68832;53.112;17.980;2023-11-19T09:56:33;26.40;;;14.20;;
79363;SDS011;68832;53.112;17.980;2023-11-19T09:59:01;20.30;;;9.20;;
79363;SDS011;68832;53.112;17.980;2023-11-19T10:01:28;20.90;;;10.60;;
79363;SDS011;68832;53.112;17.980;2023-11-19T10:03:55;21.10;;;9.90;;
79363;SDS011;68832;53.112;17.980;2023-11-19T10:06:22;26.30;;;13.60;;
79363;SDS011;68832;53.112;17.980;2023-11-19T10:08:49;20.60;;;8.50;;
79363;SDS011;68832;53.112;17.980;2023-11-19T10:11:16;28.70;;;15.10;;
79363;SDS011;68832;53.112;17.980;2023-11-19T10:13:43;25.40;;;13.60;;
79363;SDS011;68832;53.112;17.980;2023-11-19T10:16:14;24.90;;;14.20;;
79363;SDS011;68832;53.112;17.980;2023-11-19T10:18:48;19.80;;;11.20;;
79363;SDS011;68832;53.112;17.980;2023-11-19T10:21:19;32.30;;;17.00;;
79363;SDS011;68832;53.112;17.980;2023-11-19T10:23:50;20.30;;;10.80;;
79363;SDS011;68832;53.112;17.980;2023-11-19T10:26:27;26.30;;;13.70;;
79363;SDS011;68832;53.112;17.980;2023-11-19T10:28:55;26.60;;;14.10;;
79363;SDS011;68832;53.112;17.980;2023-11-19T10:31:22;19.60;;;11.20;;
79363;SDS011;68832;53.112;17.980;2023-11-19T10:33:52;26.30;;;14.10;;
79363;SDS011;68832;53.112;17.980;2023-11-19T10:36:20;22.60;;;12.50;;
79363;SDS011;68832;53.112;17.980;2023-11-19T10:38:54;27.60;;;15.70;;
79363;SDS011;68832;53.112;17.980;2023-11-19T10:41:31;25.80;;;13.90;;
79363;SDS011;68832;53.112;17.980;2023-11-19T10:43:59;27.60;;;15.20;;
79363;SDS011;68832;53.112;17.980;2023-11-19T10:49:08;20.40;;;12.30;;
79363;SDS011;68832;53.112;17.980;2023-11-19T10:51:35;28.20;;;16.50;;
79363;SDS011;68832;53.112;17.980;2023-11-19T10:54:03;14.80;;;8.80;;
79363;SDS011;68832;53.112;17.980;2023-11-19T10:56:33;30.00;;;15.00;;
79363;SDS011;68832;53.112;17.980;2023-11-19T10:59:00;27.00;;;13.40;;
79363;SDS011;68832;53.112;17.980;2023-11-19T11:01:48;28.40;;;15.20;;
79363;SDS011;68832;53.112;17.980;2023-11-19T11:04:19;17.00;;;9.80;;
79363;SDS011;68832;53.112;17.980;2023-11-19T11:06:53;40.00;;;18.40;;
79363;SDS011;68832;53.112;17.980;2023-11-19T11:09:20;19.80;;;9.60;;
79363;SDS011;68832;53.112;17.980;2023-11-19T11:11:47;28.40;;;14.70;;
79363;SDS011;68832;53.112;17.980;2023-11-19T11:14:14;31.50;;;18.50;;
79363;SDS011;68832;53.112;17.980;2023-11-19T11:16:42;18.10;;;9.20;;
79363;SDS011;68832;53.112;17.980;2023-11-19T11:19:10;30.70;;;14.80;;
79363;SDS011;68832;53.112;17.980;2023-11-19T11:21:39;33.80;;;16.10;;
79363;SDS011;68832;53.112;17.980;2023-11-19T11:26:59;28.20;;;15.20;;
79363;SDS011;68832;53.112;17.980;2023-11-19T11:29:37;25.00;;;11.70;;
79363;SDS011;68832;53.112;17.980;2023-11-19T11:35:22;33.70;;;17.20;;
79363;SDS011;68832;53.112;17.980;2023-11-19T11:37:53;19.20;;;9.80;;
79363;SDS011;68832;53.112;17.980;2023-11-19T11:40:24;28.40;;;14.20;;
79363;SDS011;68832;53.112;17.980;2023-11-19T11:42:53;27.20;;;13.00;;
79363;SDS011;68832;53.112;17.980;2023-11-19T11:45:34;39.90;;;19.50;;
79363;SDS011;68832;53.112;17.980;2023-11-19T11:48:08;22.90;;;10.70;;
79363;SDS011;68832;53.112;17.980;2023-11-19T11:50:48;33.20;;;17.30;;
79363;SDS011;68832;53.112;17.980;2023-11-19T11:53:17;25.60;;;13.00;;
79363;SDS011;68832;53.112;17.980;2023-11-19T11:58:19;28.20;;;13.80;;
79363;SDS011;68832;53.112;17.980;2023-11-19T12:00:47;27.60;;;15.60;;
79363;SDS011;68832;53.112;17.980;2023-11-19T12:03:15;26.30;;;15.30;;
79363;SDS011;68832;53.112;17.980;2023-11-19T12:05:43;21.70;;;10.40;;
79363;SDS011;68832;53.112;17.980;2023-11-19T12:08:11;33.20;;;15.70;;
79363;SDS011;68832;53.112;17.980;2023-11-19T12:10:45;44.90;;;22.10;;
79363;SDS011;68832;53.112;17.980;2023-11-19T12:13:18;26.20;;;12.70;;
79363;SDS011;68832;53.112;17.980;2023-11-19T12:18:23;33.10;;;15.70;;
79363;SDS011;68832;53.112;17.980;2023-11-19T12:20:54;35.90;;;18.40;;
79363;SDS011;68832;53.112;17.980;2023-11-19T12:23:22;31.00;;;13.60;;
79363;SDS011;68832;53.112;17.980;2023-11-19T12:25:51;37.40;;;17.50;;
79363;SDS011;68832;53.112;17.980;2023-11-19T12:28:18;41.40;;;19.50;;
79363;SDS011;68832;53.112;17.980;2023-11-19T12:30:45;33.80;;;17.20;;
79363;SDS011;68832;53.112;17.980;2023-11-19T12:33:18;24.40;;;11.40;;
79363;SDS011;68832;53.112;17.980;2023-11-19T12:35:45;31.90;;;16.00;;
79363;SDS011;68832;53.112;17.980;2023-11-19T12:38:23;31.70;;;16.70;;
79363;SDS011;68832;53.112;17.980;2023-11-19T12:41:03;24.40;;;12.90;;
79363;SDS011;68832;53.112;17.980;2023-11-19T12:43:31;18.70;;;11.30;;
79363;SDS011;68832;53.112;17.980;2023-11-19T12:45:58;32.10;;;18.30;;
79363;SDS011;68832;53.112;17.980;2023-11-19T12:48:24;36.90;;;19.10;;
79363;SDS011;68832;53.112;17.980;2023-11-19T12:50:54;24.00;;;10.30;;
79363;SDS011;68832;53.112;17.980;2023-11-19T12:53:23;33.30;;;15.90;;
79363;SDS011;68832;53.112;17.980;2023-11-19T12:55:51;34.20;;;18.10;;
79363;SDS011;68832;53.112;17.980;2023-11-19T12:58:31;27.00;;;14.30;;
79363;SDS011;68832;53.112;17.980;2023-11-19T13:03:35;24.40;;;13.90;;
79363;SDS011;68832;53.112;17.980;2023-11-19T13:06:06;27.40;;;15.00;;
79363;SDS011;68832;53.112;17.980;2023-11-19T13:08:43;23.70;;;12.50;;
79363;SDS011;68832;53.112;17.980;2023-11-19T13:11:33;30.10;;;17.70;;
79363;SDS011;68832;53.112;17.980;2023-11-19T13:14:03;24.40;;;11.60;;
79363;SDS011;68832;53.112;17.980;2023-11-19T13:16:31;34.40;;;15.20;;
79363;SDS011;68832;53.112;17.980;2023-11-19T13:18:57;34.90;;;15.80;;
79363;SDS011;68832;53.112;17.980;2023-11-19T13:21:25;28.50;;;14.60;;
79363;SDS011;68832;53.112;17.980;2023-11-19T13:23:52;24.80;;;12.60;;
79363;SDS011;68832;53.112;17.980;2023-11-19T13:26:18;31.90;;;16.00;;
79363;SDS011;68832;53.112;17.980;2023-11-19T13:28:45;31.20;;;16.20;;
79363;SDS011;68832;53.112;17.980;2023-11-19T13:31:12;36.30;;;17.40;;
79363;SDS011;68832;53.112;17.980;2023-11-19T13:33:39;26.10;;;13.30;;
79363;SDS011;68832;53.112;17.980;2023-11-19T13:36:06;24.10;;;11.10;;
79363;SDS011;68832;53.112;17.980;2023-11-19T13:38:34;16.00;;;8.80;;
79363;SDS011;68832;53.112;17.980;2023-11-19T13:41:04;35.20;;;17.10;;
79363;SDS011;68832;53.112;17.980;2023-11-19T13:43:30;14.60;;;8.10;;
79363;SDS011;68832;53.112;17.980;2023-11-19T13:45:58;16.20;;;9.80;;
79363;SDS011;68832;53.112;17.980;2023-11-19T13:48:24;17.00;;;8.00;;
79363;SDS011;68832;53.112;17.980;2023-11-19T13:50:52;19.70;;;9.60;;
79363;SDS011;68832;53.112;17.980;2023-11-19T13:53:20;23.80;;;11.40;;
79363;SDS011;68832;53.112;17.980;2023-11-19T13:55:47;20.20;;;13.70;;
79363;SDS011;68832;53.112;17.980;2023-11-19T13:58:14;22.80;;;12.10;;
79363;SDS011;68832;53.112;17.980;2023-11-19T14:00:40;26.50;;;14.00;;
79363;SDS011;68832;53.112;17.980;2023-11-19T14:03:08;38.10;;;21.30;;
79363;SDS011;68832;53.112;17.980;2023-11-19T14:05:38;23.50;;;11.90;;
79363;SDS011;68832;53.112;17.980;2023-11-19T14:08:07;21.10;;;11.50;;
79363;SDS011;68832;53.112;17.980;2023-11-19T14:10:40;22.40;;;12.50;;
79363;SDS011;68832;53.112;17.980;2023-11-19T14:13:07;24.40;;;13.30;;
79363;SDS011;68832;53.112;17.980;2023-11-19T14:15:33;23.40;;;11.30;;
79363;SDS011;68832;53.112;17.980;2023-11-19T14:18:01;28.70;;;14.80;;
79363;SDS011;68832;53.112;17.980;2023-11-19T14:20:29;25.00;;;15.40;;
79363;SDS011;68832;53.112;17.980;2023-11-19T14:22:56;14.70;;;9.30;;
79363;SDS011;68832;53.112;17.980;2023-11-19T14:25:22;11.10;;;6.20;;
79363;SDS011;68832;53.112;17.980;2023-11-19T14:27:50;24.80;;;11.10;;
79363;SDS011;68832;53.112;17.980;2023-11-19T14:30:18;25.50;;;13.20;;
79363;SDS011;68832;53.112;17.980;2023-11-19T14:32:45;12.40;;;9.90;;
79363;SDS011;68832;53.112;17.980;2023-11-19T14:35:13;16.10;;;8.40;;
79363;SDS011;68832;53.112;17.980;2023-11-19T14:37:39;17.20;;;8.60;;
79363;SDS011;68832;53.112;17.980;2023-11-19T14:40:06;27.90;;;13.00;;
79363;SDS011;68832;53.112;17.980;2023-11-19T14:42:36;30.20;;;16.30;;